CWCA

Cartwright  Airport

Cartwright, Canada

CWCA 191700Z 32011KT 1 3/4SM -DZ BR OVC005 02/02 A2956 RMK ST8 SLP013

Observed Flight Rules
Nov-19 @ 17:00 UTC (an hour ago)
 
Instrument Flight Rules
Wind Visibility Clouds Conditions
320° at 11 knots 1 3/4 miles
  • Overcast at 500' AGL
  • Light Drizzle
  • Mist
Temperatures Readings
Current 2°C / 36°F
Dewpoint 2°C / 36°F
Humidity 100%
Altimeter 29.56" Hg
Pressure 1001.3 hPa
Elevation 14
Observed Flight Rules
Nov-19 @ 17:00 UTC
(an hour ago)
 
IFR
Wind Visibility
320° at 11 knots 1 3/4 miles
Clouds
  • Overcast at 500' AGL
Conditions
  • Light Drizzle
  • Mist
Temperature Dewpoint
2°C / 36°F 2°C / 36°F
Humidity Altimeter Pressure
100% 29.56" Hg 1001.3 hPa